sensor_id;sensor_type;location;lat;lon;timestamp;P1;durP1;ratioP1;P2;durP2;ratioP2
46731;SDS011;32477;51.474;5.696;2023-02-26T00:01:11;23.65;;;5.22;;
46731;SDS011;32477;51.474;5.696;2023-02-26T00:03:38;17.27;;;5.90;;
46731;SDS011;32477;51.474;5.696;2023-02-26T00:06:05;11.63;;;4.72;;
46731;SDS011;32477;51.474;5.696;2023-02-26T00:08:31;14.15;;;5.05;;
46731;SDS011;32477;51.474;5.696;2023-02-26T00:10:57;12.98;;;5.13;;
46731;SDS011;32477;51.474;5.696;2023-02-26T00:13:25;16.73;;;6.22;;
46731;SDS011;32477;51.474;5.696;2023-02-26T00:15:58;14.00;;;5.50;;
46731;SDS011;32477;51.474;5.696;2023-02-26T00:18:25;23.15;;;5.90;;
46731;SDS011;32477;51.474;5.696;2023-02-26T00:20:51;21.88;;;5.35;;
46731;SDS011;32477;51.474;5.696;2023-02-26T00:23:17;14.80;;;5.47;;
46731;SDS011;32477;51.474;5.696;2023-02-26T00:25:43;14.80;;;4.90;;
46731;SDS011;32477;51.474;5.696;2023-02-26T00:28:10;17.60;;;5.00;;
46731;SDS011;32477;51.474;5.696;2023-02-26T00:30:37;11.93;;;5.07;;
46731;SDS011;32477;51.474;5.696;2023-02-26T00:33:03;13.23;;;5.28;;
46731;SDS011;32477;51.474;5.696;2023-02-26T00:35:29;12.57;;;4.05;;
46731;SDS011;32477;51.474;5.696;2023-02-26T00:40:46;10.45;;;5.00;;
46731;SDS011;32477;51.474;5.696;2023-02-26T00:43:20;16.15;;;4.75;;
46731;SDS011;32477;51.474;5.696;2023-02-26T00:48:52;14.20;;;5.55;;
46731;SDS011;32477;51.474;5.696;2023-02-26T00:51:31;21.52;;;4.85;;
46731;SDS011;32477;51.474;5.696;2023-02-26T00:54:18;16.05;;;4.63;;
46731;SDS011;32477;51.474;5.696;2023-02-26T00:56:52;15.40;;;4.70;;
46731;SDS011;32477;51.474;5.696;2023-02-26T00:59:19;17.92;;;5.55;;
46731;SDS011;32477;51.474;5.696;2023-02-26T01:01:45;17.92;;;4.85;;
46731;SDS011;32477;51.474;5.696;2023-02-26T01:04:12;19.42;;;5.07;;
46731;SDS011;32477;51.474;5.696;2023-02-26T01:06:44;18.90;;;5.07;;
46731;SDS011;32477;51.474;5.696;2023-02-26T01:09:16;14.50;;;5.05;;
46731;SDS011;32477;51.474;5.696;2023-02-26T01:11:50;12.82;;;4.32;;
46731;SDS011;32477;51.474;5.696;2023-02-26T01:14:17;10.35;;;5.07;;
46731;SDS011;32477;51.474;5.696;2023-02-26T01:16:56;17.65;;;4.93;;
46731;SDS011;32477;51.474;5.696;2023-02-26T01:24:50;15.15;;;5.03;;
46731;SDS011;32477;51.474;5.696;2023-02-26T01:27:23;18.73;;;4.85;;
46731;SDS011;32477;51.474;5.696;2023-02-26T01:29:49;11.70;;;4.10;;
46731;SDS011;32477;51.474;5.696;2023-02-26T01:32:18;12.23;;;4.13;;
46731;SDS011;32477;51.474;5.696;2023-02-26T01:34:59;13.93;;;4.10;;
46731;SDS011;32477;51.474;5.696;2023-02-26T01:37:55;10.73;;;3.65;;
46731;SDS011;32477;51.474;5.696;2023-02-26T01:40:35;22.85;;;4.30;;
46731;SDS011;32477;51.474;5.696;2023-02-26T01:43:23;15.95;;;3.95;;
46731;SDS011;32477;51.474;5.696;2023-02-26T01:46:04;14.68;;;4.28;;
46731;SDS011;32477;51.474;5.696;2023-02-26T01:48:47;16.05;;;4.10;;
46731;SDS011;32477;51.474;5.696;2023-02-26T01:51:13;6.50;;;3.17;;
46731;SDS011;32477;51.474;5.696;2023-02-26T01:53:39;12.90;;;3.40;;
46731;SDS011;32477;51.474;5.696;2023-02-26T01:56:08;12.25;;;3.00;;
46731;SDS011;32477;51.474;5.696;2023-02-26T01:58:37;9.02;;;3.35;;
46731;SDS011;32477;51.474;5.696;2023-02-26T02:01:04;11.50;;;3.70;;
46731;SDS011;32477;51.474;5.696;2023-02-26T02:03:31;9.55;;;2.78;;
46731;SDS011;32477;51.474;5.696;2023-02-26T02:06:03;17.27;;;3.53;;
46731;SDS011;32477;51.474;5.696;2023-02-26T02:08:32;11.95;;;3.05;;
46731;SDS011;32477;51.474;5.696;2023-02-26T02:10:59;9.63;;;3.08;;
46731;SDS011;32477;51.474;5.696;2023-02-26T02:16:14;11.55;;;3.05;;
46731;SDS011;32477;51.474;5.696;2023-02-26T02:27:10;11.35;;;3.33;;
46731;SDS011;32477;51.474;5.696;2023-02-26T02:30:00;9.90;;;3.67;;
46731;SDS011;32477;51.474;5.696;2023-02-26T02:32:35;12.52;;;3.08;;
46731;SDS011;32477;51.474;5.696;2023-02-26T02:35:07;9.45;;;3.47;;
46731;SDS011;32477;51.474;5.696;2023-02-26T02:37:40;18.83;;;3.60;;
46731;SDS011;32477;51.474;5.696;2023-02-26T02:40:08;12.73;;;2.90;;
46731;SDS011;32477;51.474;5.696;2023-02-26T02:45:21;13.20;;;3.92;;
46731;SDS011;32477;51.474;5.696;2023-02-26T02:47:59;13.98;;;2.92;;
46731;SDS011;32477;51.474;5.696;2023-02-26T02:50:51;13.50;;;3.35;;
46731;SDS011;32477;51.474;5.696;2023-02-26T02:53:24;15.13;;;3.07;;
46731;SDS011;32477;51.474;5.696;2023-02-26T02:58:29;12.00;;;3.50;;
46731;SDS011;32477;51.474;5.696;2023-02-26T03:00:59;6.63;;;2.78;;
46731;SDS011;32477;51.474;5.696;2023-02-26T03:03:31;9.65;;;3.08;;
46731;SDS011;32477;51.474;5.696;2023-02-26T03:06:12;15.48;;;3.58;;
46731;SDS011;32477;51.474;5.696;2023-02-26T03:08:39;11.30;;;3.40;;
46731;SDS011;32477;51.474;5.696;2023-02-26T03:11:06;9.65;;;2.67;;
46731;SDS011;32477;51.474;5.696;2023-02-26T03:13:32;6.47;;;2.65;;
46731;SDS011;32477;51.474;5.696;2023-02-26T03:16:00;9.98;;;2.58;;
46731;SDS011;32477;51.474;5.696;2023-02-26T03:24:07;10.32;;;2.83;;
46731;SDS011;32477;51.474;5.696;2023-02-26T03:26:47;12.63;;;2.67;;
46731;SDS011;32477;51.474;5.696;2023-02-26T03:29:30;12.02;;;2.97;;
46731;SDS011;32477;51.474;5.696;2023-02-26T03:32:18;11.35;;;2.38;;
46731;SDS011;32477;51.474;5.696;2023-02-26T03:34:56;11.18;;;2.58;;
46731;SDS011;32477;51.474;5.696;2023-02-26T03:37:37;9.55;;;2.03;;
46731;SDS011;32477;51.474;5.696;2023-02-26T03:40:14;13.80;;;1.90;;
46731;SDS011;32477;51.474;5.696;2023-02-26T03:42:49;10.20;;;1.85;;
46731;SDS011;32477;51.474;5.696;2023-02-26T03:45:29;5.18;;;1.85;;
46731;SDS011;32477;51.474;5.696;2023-02-26T03:47:58;9.93;;;3.15;;
46731;SDS011;32477;51.474;5.696;2023-02-26T03:50:33;7.80;;;1.58;;
46731;SDS011;32477;51.474;5.696;2023-02-26T03:53:02;6.72;;;1.83;;
46731;SDS011;32477;51.474;5.696;2023-02-26T03:55:32;5.22;;;1.90;;
46731;SDS011;32477;51.474;5.696;2023-02-26T03:58:11;12.60;;;1.85;;
46731;SDS011;32477;51.474;5.696;2023-02-26T04:00:37;8.57;;;2.03;;
46731;SDS011;32477;51.474;5.696;2023-02-26T04:03:12;12.35;;;2.00;;
46731;SDS011;32477;51.474;5.696;2023-02-26T04:05:42;14.23;;;2.20;;
46731;SDS011;32477;51.474;5.696;2023-02-26T04:08:12;5.05;;;1.55;;
46731;SDS011;32477;51.474;5.696;2023-02-26T04:10:43;8.77;;;1.95;;
46731;SDS011;32477;51.474;5.696;2023-02-26T04:13:13;11.80;;;2.05;;
46731;SDS011;32477;51.474;5.696;2023-02-26T04:15:38;14.35;;;2.33;;
46731;SDS011;32477;51.474;5.696;2023-02-26T04:18:04;12.90;;;2.35;;
46731;SDS011;32477;51.474;5.696;2023-02-26T04:20:30;6.55;;;1.55;;
46731;SDS011;32477;51.474;5.696;2023-02-26T04:22:55;5.10;;;1.98;;
46731;SDS011;32477;51.474;5.696;2023-02-26T04:25:21;6.78;;;1.70;;
46731;SDS011;32477;51.474;5.696;2023-02-26T04:27:47;5.85;;;2.28;;
46731;SDS011;32477;51.474;5.696;2023-02-26T04:30:12;9.80;;;1.80;;
46731;SDS011;32477;51.474;5.696;2023-02-26T04:32:38;2.97;;;1.48;;
46731;SDS011;32477;51.474;5.696;2023-02-26T04:35:04;19.13;;;2.42;;
46731;SDS011;32477;51.474;5.696;2023-02-26T04:37:30;8.07;;;2.25;;
46731;SDS011;32477;51.474;5.696;2023-02-26T04:39:55;3.90;;;1.80;;
46731;SDS011;32477;51.474;5.696;2023-02-26T04:42:21;3.15;;;2.00;;
46731;SDS011;32477;51.474;5.696;2023-02-26T04:44:46;5.43;;;1.80;;
46731;SDS011;32477;51.474;5.696;2023-02-26T04:47:12;7.32;;;1.58;;
46731;SDS011;32477;51.474;5.696;2023-02-26T04:49:38;6.88;;;1.75;;
46731;SDS011;32477;51.474;5.696;2023-02-26T04:52:03;5.88;;;2.03;;
46731;SDS011;32477;51.474;5.696;2023-02-26T04:54:29;10.25;;;1.85;;
46731;SDS011;32477;51.474;5.696;2023-02-26T04:56:55;8.27;;;2.42;;
46731;SDS011;32477;51.474;5.696;2023-02-26T04:59:20;10.50;;;1.83;;
46731;SDS011;32477;51.474;5.696;2023-02-26T05:01:46;15.75;;;2.08;;
46731;SDS011;32477;51.474;5.696;2023-02-26T05:04:12;3.97;;;2.03;;
46731;SDS011;32477;51.474;5.696;2023-02-26T05:06:38;5.43;;;1.90;;
46731;SDS011;32477;51.474;5.696;2023-02-26T05:09:03;3.83;;;1.65;;
46731;SDS011;32477;51.474;5.696;2023-02-26T05:11:29;7.57;;;1.90;;
46731;SDS011;32477;51.474;5.696;2023-02-26T05:13:55;11.23;;;2.13;;
46731;SDS011;32477;51.474;5.696;2023-02-26T05:16:20;11.70;;;2.17;;
46731;SDS011;32477;51.474;5.696;2023-02-26T05:18:46;11.20;;;1.92;;
46731;SDS011;32477;51.474;5.696;2023-02-26T05:21:12;9.02;;;1.73;;
46731;SDS011;32477;51.474;5.696;2023-02-26T05:23:37;8.60;;;2.00;;
46731;SDS011;32477;51.474;5.696;2023-02-26T05:26:03;14.90;;;2.13;;
46731;SDS011;32477;51.474;5.696;2023-02-26T05:28:29;8.27;;;1.92;;
46731;SDS011;32477;51.474;5.696;2023-02-26T05:30:55;5.25;;;1.95;;
46731;SDS011;32477;51.474;5.696;2023-02-26T05:33:21;5.28;;;1.85;;
46731;SDS011;32477;51.474;5.696;2023-02-26T05:35:47;7.05;;;1.98;;
46731;SDS011;32477;51.474;5.696;2023-02-26T05:38:13;6.30;;;1.80;;
46731;SDS011;32477;51.474;5.696;2023-02-26T05:40:39;4.57;;;1.73;;
46731;SDS011;32477;51.474;5.696;2023-02-26T05:43:04;5.22;;;1.60;;
46731;SDS011;32477;51.474;5.696;2023-02-26T05:45:30;5.57;;;1.75;;
46731;SDS011;32477;51.474;5.696;2023-02-26T05:47:56;3.97;;;1.63;;
46731;SDS011;32477;51.474;5.696;2023-02-26T05:50:21;13.77;;;1.55;;
46731;SDS011;32477;51.474;5.696;2023-02-26T05:52:47;7.80;;;1.88;;
46731;SDS011;32477;51.474;5.696;2023-02-26T05:55:13;5.07;;;1.40;;
46731;SDS011;32477;51.474;5.696;2023-02-26T05:57:38;4.70;;;1.63;;
46731;SDS011;32477;51.474;5.696;2023-02-26T06:00:04;7.63;;;1.50;;
46731;SDS011;32477;51.474;5.696;2023-02-26T06:02:31;5.63;;;1.50;;
46731;SDS011;32477;51.474;5.696;2023-02-26T06:04:57;9.68;;;1.40;;
46731;SDS011;32477;51.474;5.696;2023-02-26T06:07:23;8.93;;;1.45;;
46731;SDS011;32477;51.474;5.696;2023-02-26T06:09:48;6.00;;;1.30;;
46731;SDS011;32477;51.474;5.696;2023-02-26T06:12:14;5.68;;;1.42;;
46731;SDS011;32477;51.474;5.696;2023-02-26T06:14:40;3.08;;;1.48;;
46731;SDS011;32477;51.474;5.696;2023-02-26T06:17:05;8.93;;;1.88;;
46731;SDS011;32477;51.474;5.696;2023-02-26T06:19:32;7.60;;;1.23;;
46731;SDS011;32477;51.474;5.696;2023-02-26T06:21:58;8.13;;;1.30;;
46731;SDS011;32477;51.474;5.696;2023-02-26T06:24:24;6.47;;;1.95;;
46731;SDS011;32477;51.474;5.696;2023-02-26T06:26:50;6.10;;;1.38;;
46731;SDS011;32477;51.474;5.696;2023-02-26T06:29:16;3.70;;;1.23;;
46731;SDS011;32477;51.474;5.696;2023-02-26T06:31:42;2.08;;;0.98;;
46731;SDS011;32477;51.474;5.696;2023-02-26T06:34:08;4.82;;;1.40;;
46731;SDS011;32477;51.474;5.696;2023-02-26T06:36:34;5.72;;;1.20;;
46731;SDS011;32477;51.474;5.696;2023-02-26T06:39:00;10.73;;;1.80;;
46731;SDS011;32477;51.474;5.696;2023-02-26T06:41:25;9.35;;;1.50;;
46731;SDS011;32477;51.474;5.696;2023-02-26T06:43:51;15.60;;;1.67;;
46731;SDS011;32477;51.474;5.696;2023-02-26T06:46:17;6.00;;;1.35;;
46731;SDS011;32477;51.474;5.696;2023-02-26T06:48:42;4.82;;;1.52;;
46731;SDS011;32477;51.474;5.696;2023-02-26T06:51:12;5.00;;;1.45;;
46731;SDS011;32477;51.474;5.696;2023-02-26T06:53:38;12.27;;;1.73;;
46731;SDS011;32477;51.474;5.696;2023-02-26T06:56:04;3.55;;;1.33;;
46731;SDS011;32477;51.474;5.696;2023-02-26T06:58:30;4.78;;;1.70;;
46731;SDS011;32477;51.474;5.696;2023-02-26T07:00:55;20.38;;;2.00;;
46731;SDS011;32477;51.474;5.696;2023-02-26T07:03:21;10.05;;;1.10;;
46731;SDS011;32477;51.474;5.696;2023-02-26T07:05:47;7.72;;;1.55;;
46731;SDS011;32477;51.474;5.696;2023-02-26T07:08:13;3.72;;;1.35;;
46731;SDS011;32477;51.474;5.696;2023-02-26T07:10:39;8.48;;;1.30;;
46731;SDS011;32477;51.474;5.696;2023-02-26T07:13:06;9.60;;;1.48;;
46731;SDS011;32477;51.474;5.696;2023-02-26T07:15:32;9.23;;;1.80;;
46731;SDS011;32477;51.474;5.696;2023-02-26T07:17:58;7.30;;;1.75;;
46731;SDS011;32477;51.474;5.696;2023-02-26T07:20:24;6.30;;;1.52;;
46731;SDS011;32477;51.474;5.696;2023-02-26T07:22:50;6.60;;;1.20;;
46731;SDS011;32477;51.474;5.696;2023-02-26T07:25:16;9.55;;;1.75;;
46731;SDS011;32477;51.474;5.696;2023-02-26T07:27:42;4.20;;;1.50;;
46731;SDS011;32477;51.474;5.696;2023-02-26T07:30:07;3.40;;;1.25;;
46731;SDS011;32477;51.474;5.696;2023-02-26T07:32:34;8.32;;;1.60;;
46731;SDS011;32477;51.474;5.696;2023-02-26T07:35:00;5.78;;;1.45;;
46731;SDS011;32477;51.474;5.696;2023-02-26T07:37:25;20.27;;;1.88;;
46731;SDS011;32477;51.474;5.696;2023-02-26T07:39:52;2.22;;;1.23;;
46731;SDS011;32477;51.474;5.696;2023-02-26T07:42:18;9.30;;;1.75;;
46731;SDS011;32477;51.474;5.696;2023-02-26T07:44:44;5.10;;;1.35;;
46731;SDS011;32477;51.474;5.696;2023-02-26T07:47:10;8.10;;;1.52;;
46731;SDS011;32477;51.474;5.696;2023-02-26T07:49:36;6.03;;;1.20;;
46731;SDS011;32477;51.474;5.696;2023-02-26T07:52:03;3.47;;;1.33;;
46731;SDS011;32477;51.474;5.696;2023-02-26T07:54:29;8.90;;;1.48;;
46731;SDS011;32477;51.474;5.696;2023-02-26T07:56:55;3.22;;;1.20;;
46731;SDS011;32477;51.474;5.696;2023-02-26T07:59:20;6.10;;;1.83;;
46731;SDS011;32477;51.474;5.696;2023-02-26T08:01:46;5.63;;;1.88;;
46731;SDS011;32477;51.474;5.696;2023-02-26T08:04:12;2.75;;;0.90;;
46731;SDS011;32477;51.474;5.696;2023-02-26T08:06:38;5.88;;;1.15;;
46731;SDS011;32477;51.474;5.696;2023-02-26T08:09:03;8.93;;;1.20;;
46731;SDS011;32477;51.474;5.696;2023-02-26T08:11:29;6.45;;;1.27;;
46731;SDS011;32477;51.474;5.696;2023-02-26T08:13:56;3.17;;;1.15;;
46731;SDS011;32477;51.474;5.696;2023-02-26T08:16:23;17.42;;;2.55;;
46731;SDS011;32477;51.474;5.696;2023-02-26T08:18:48;5.85;;;0.98;;
46731;SDS011;32477;51.474;5.696;2023-02-26T08:21:14;2.72;;;1.05;;
46731;SDS011;32477;51.474;5.696;2023-02-26T08:23:40;8.32;;;1.13;;
46731;SDS011;32477;51.474;5.696;2023-02-26T08:26:07;4.70;;;0.80;;
46731;SDS011;32477;51.474;5.696;2023-02-26T08:28:34;7.55;;;1.13;;
46731;SDS011;32477;51.474;5.696;2023-02-26T08:31:00;9.18;;;1.17;;
46731;SDS011;32477;51.474;5.696;2023-02-26T08:33:26;3.60;;;1.00;;
46731;SDS011;32477;51.474;5.696;2023-02-26T08:35:52;3.58;;;0.90;;
46731;SDS011;32477;51.474;5.696;2023-02-26T08:38:19;2.63;;;1.08;;
46731;SDS011;32477;51.474;5.696;2023-02-26T08:40:47;3.53;;;0.85;;
46731;SDS011;32477;51.474;5.696;2023-02-26T08:43:13;3.42;;;0.90;;
46731;SDS011;32477;51.474;5.696;2023-02-26T08:45:39;6.55;;;0.90;;
46731;SDS011;32477;51.474;5.696;2023-02-26T08:48:05;5.18;;;1.00;;
46731;SDS011;32477;51.474;5.696;2023-02-26T08:50:31;2.28;;;0.77;;
46731;SDS011;32477;51.474;5.696;2023-02-26T08:52:58;5.05;;;0.95;;
46731;SDS011;32477;51.474;5.696;2023-02-26T08:55:23;4.95;;;0.90;;
46731;SDS011;32477;51.474;5.696;2023-02-26T08:57:49;6.75;;;1.40;;
46731;SDS011;32477;51.474;5.696;2023-02-26T09:00:15;7.47;;;1.08;;
46731;SDS011;32477;51.474;5.696;2023-02-26T09:02:42;5.57;;;1.30;;
46731;SDS011;32477;51.474;5.696;2023-02-26T09:05:08;6.28;;;1.20;;
46731;SDS011;32477;51.474;5.696;2023-02-26T09:07:33;3.13;;;0.95;;
46731;SDS011;32477;51.474;5.696;2023-02-26T09:09:59;4.88;;;1.17;;
46731;SDS011;32477;51.474;5.696;2023-02-26T09:12:25;6.43;;;1.25;;
46731;SDS011;32477;51.474;5.696;2023-02-26T09:14:51;4.22;;;0.77;;
46731;SDS011;32477;51.474;5.696;2023-02-26T09:17:16;6.50;;;1.63;;
46731;SDS011;32477;51.474;5.696;2023-02-26T09:19:42;5.55;;;1.20;;
46731;SDS011;32477;51.474;5.696;2023-02-26T09:22:07;3.58;;;1.00;;
46731;SDS011;32477;51.474;5.696;2023-02-26T09:24:33;4.82;;;1.25;;
46731;SDS011;32477;51.474;5.696;2023-02-26T09:26:59;8.68;;;1.55;;
46731;SDS011;32477;51.474;5.696;2023-02-26T09:29:26;10.30;;;1.15;;
46731;SDS011;32477;51.474;5.696;2023-02-26T09:31:52;5.03;;;0.75;;
46731;SDS011;32477;51.474;5.696;2023-02-26T09:34:17;2.20;;;0.98;;
46731;SDS011;32477;51.474;5.696;2023-02-26T09:36:44;3.40;;;0.98;;
46731;SDS011;32477;51.474;5.696;2023-02-26T09:39:10;3.00;;;0.98;;
46731;SDS011;32477;51.474;5.696;2023-02-26T09:41:37;4.90;;;0.80;;
46731;SDS011;32477;51.474;5.696;2023-02-26T09:52:21;3.97;;;0.90;;
46731;SDS011;32477;51.474;5.696;2023-02-26T09:54:49;4.65;;;1.08;;
46731;SDS011;32477;51.474;5.696;2023-02-26T09:57:31;4.60;;;0.93;;
46731;SDS011;32477;51.474;5.696;2023-02-26T10:00:52;5.75;;;1.48;;
46731;SDS011;32477;51.474;5.696;2023-02-26T10:03:08;6.70;;;1.13;;
46731;SDS011;32477;51.474;5.696;2023-02-26T10:11:36;7.25;;;1.05;;
46731;SDS011;32477;51.474;5.696;2023-02-26T10:14:11;3.78;;;1.05;;
46731;SDS011;32477;51.474;5.696;2023-02-26T10:16:44;3.65;;;1.38;;
46731;SDS011;32477;51.474;5.696;2023-02-26T10:19:18;3.95;;;1.10;;
46731;SDS011;32477;51.474;5.696;2023-02-26T10:21:49;4.25;;;0.75;;
46731;SDS011;32477;51.474;5.696;2023-02-26T10:24:24;3.63;;;1.35;;
46731;SDS011;32477;51.474;5.696;2023-02-26T10:27:04;2.00;;;0.50;;
46731;SDS011;32477;51.474;5.696;2023-02-26T10:30:32;4.30;;;0.90;;
46731;SDS011;32477;51.474;5.696;2023-02-26T10:32:50;4.00;;;0.68;;
46731;SDS011;32477;51.474;5.696;2023-02-26T10:35:26;4.40;;;0.88;;
46731;SDS011;32477;51.474;5.696;2023-02-26T10:37:58;2.78;;;0.90;;
46731;SDS011;32477;51.474;5.696;2023-02-26T10:43:14;2.80;;;0.43;;
46731;SDS011;32477;51.474;5.696;2023-02-26T10:51:24;1.67;;;0.90;;
46731;SDS011;32477;51.474;5.696;2023-02-26T10:53:57;2.47;;;0.80;;
46731;SDS011;32477;51.474;5.696;2023-02-26T10:56:31;3.88;;;0.73;;
46731;SDS011;32477;51.474;5.696;2023-02-26T10:58:58;5.50;;;0.95;;
46731;SDS011;32477;51.474;5.696;2023-02-26T11:01:25;4.95;;;0.90;;
46731;SDS011;32477;51.474;5.696;2023-02-26T11:03:57;0.70;;;0.47;;
46731;SDS011;32477;51.474;5.696;2023-02-26T11:06:29;1.70;;;0.57;;
46731;SDS011;32477;51.474;5.696;2023-02-26T11:09:02;2.20;;;0.57;;
46731;SDS011;32477;51.474;5.696;2023-02-26T11:11:39;4.60;;;0.93;;
46731;SDS011;32477;51.474;5.696;2023-02-26T11:14:08;1.90;;;0.47;;
46731;SDS011;32477;51.474;5.696;2023-02-26T11:16:34;1.10;;;0.65;;
46731;SDS011;32477;51.474;5.696;2023-02-26T11:19:05;1.90;;;0.50;;
46731;SDS011;32477;51.474;5.696;2023-02-26T11:21:38;5.30;;;1.02;;
46731;SDS011;32477;51.474;5.696;2023-02-26T11:24:22;1.92;;;0.57;;
46731;SDS011;32477;51.474;5.696;2023-02-26T11:26:58;1.38;;;0.50;;
46731;SDS011;32477;51.474;5.696;2023-02-26T11:29:28;2.22;;;1.25;;
46731;SDS011;32477;51.474;5.696;2023-02-26T11:32:17;1.77;;;0.73;;
46731;SDS011;32477;51.474;5.696;2023-02-26T11:34:45;2.88;;;0.70;;
46731;SDS011;32477;51.474;5.696;2023-02-26T11:37:13;1.75;;;0.60;;
46731;SDS011;32477;51.474;5.696;2023-02-26T11:39:44;2.42;;;0.70;;
46731;SDS011;32477;51.474;5.696;2023-02-26T11:42:11;3.95;;;1.02;;
46731;SDS011;32477;51.474;5.696;2023-02-26T11:44:39;1.55;;;0.75;;
46731;SDS011;32477;51.474;5.696;2023-02-26T11:47:14;2.53;;;0.57;;
46731;SDS011;32477;51.474;5.696;2023-02-26T11:49:48;7.85;;;1.02;;
46731;SDS011;32477;51.474;5.696;2023-02-26T11:52:19;3.55;;;0.90;;
46731;SDS011;32477;51.474;5.696;2023-02-26T11:54:46;2.03;;;0.93;;
46731;SDS011;32477;51.474;5.696;2023-02-26T11:57:18;2.72;;;0.90;;
46731;SDS011;32477;51.474;5.696;2023-02-26T11:59:49;0.93;;;0.43;;
46731;SDS011;32477;51.474;5.696;2023-02-26T12:02:18;0.88;;;0.52;;
46731;SDS011;32477;51.474;5.696;2023-02-26T12:04:48;2.53;;;0.40;;
46731;SDS011;32477;51.474;5.696;2023-02-26T12:07:18;2.25;;;0.57;;
46731;SDS011;32477;51.474;5.696;2023-02-26T12:09:44;3.00;;;0.80;;
46731;SDS011;32477;51.474;5.696;2023-02-26T12:26:06;2.35;;;0.57;;
46731;SDS011;32477;51.474;5.696;2023-02-26T12:42:54;6.97;;;1.90;;
46731;SDS011;32477;51.474;5.696;2023-02-26T12:45:41;2.83;;;1.30;;
46731;SDS011;32477;51.474;5.696;2023-02-26T12:58:19;3.35;;;0.77;;
46731;SDS011;32477;51.474;5.696;2023-02-26T13:01:14;6.20;;;1.00;;
46731;SDS011;32477;51.474;5.696;2023-02-26T13:09:40;1.92;;;0.70;;
46731;SDS011;32477;51.474;5.696;2023-02-26T13:20:36;6.53;;;1.00;;
46731;SDS011;32477;51.474;5.696;2023-02-26T13:23:17;2.47;;;1.17;;
46731;SDS011;32477;51.474;5.696;2023-02-26T13:25:56;6.05;;;0.75;;
46731;SDS011;32477;51.474;5.696;2023-02-26T13:28:42;0.90;;;0.57;;
46731;SDS011;32477;51.474;5.696;2023-02-26T13:31:16;2.03;;;0.80;;
46731;SDS011;32477;51.474;5.696;2023-02-26T13:33:45;0.77;;;0.60;;
46731;SDS011;32477;51.474;5.696;2023-02-26T13:36:14;3.72;;;0.70;;
46731;SDS011;32477;51.474;5.696;2023-02-26T13:52:51;2.88;;;0.57;;
46731;SDS011;32477;51.474;5.696;2023-02-26T13:55:34;2.78;;;1.00;;
46731;SDS011;32477;51.474;5.696;2023-02-26T13:58:24;1.83;;;0.80;;
46731;SDS011;32477;51.474;5.696;2023-02-26T14:03:30;1.02;;;0.50;;
46731;SDS011;32477;51.474;5.696;2023-02-26T14:08:52;5.30;;;0.88;;
46731;SDS011;32477;51.474;5.696;2023-02-26T14:11:24;3.80;;;0.77;;
46731;SDS011;32477;51.474;5.696;2023-02-26T14:16:38;4.05;;;0.93;;
46731;SDS011;32477;51.474;5.696;2023-02-26T14:21:45;5.40;;;1.80;;
46731;SDS011;32477;51.474;5.696;2023-02-26T14:24:16;7.22;;;0.98;;
46731;SDS011;32477;51.474;5.696;2023-02-26T14:27:48;4.05;;;1.05;;
46731;SDS011;32477;51.474;5.696;2023-02-26T14:29:58;1.58;;;0.70;;
46731;SDS011;32477;51.474;5.696;2023-02-26T14:33:12;5.07;;;1.02;;
46731;SDS011;32477;51.474;5.696;2023-02-26T14:35:42;3.10;;;0.80;;
46731;SDS011;32477;51.474;5.696;2023-02-26T14:38:11;1.38;;;0.60;;
46731;SDS011;32477;51.474;5.696;2023-02-26T14:43:19;6.78;;;0.90;;
46731;SDS011;32477;51.474;5.696;2023-02-26T14:46:06;3.38;;;1.27;;
46731;SDS011;32477;51.474;5.696;2023-02-26T14:48:33;4.38;;;1.05;;
46731;SDS011;32477;51.474;5.696;2023-02-26T15:10:36;14.90;;;6.85;;
46731;SDS011;32477;51.474;5.696;2023-02-26T15:21:55;5.45;;;2.10;;
46731;SDS011;32477;51.474;5.696;2023-02-26T15:24:24;5.43;;;2.05;;
46731;SDS011;32477;51.474;5.696;2023-02-26T15:26:54;5.30;;;2.30;;
46731;SDS011;32477;51.474;5.696;2023-02-26T15:29:28;4.88;;;1.48;;
46731;SDS011;32477;51.474;5.696;2023-02-26T15:31:58;4.63;;;1.30;;
46731;SDS011;32477;51.474;5.696;2023-02-26T15:34:29;3.47;;;1.58;;
46731;SDS011;32477;51.474;5.696;2023-02-26T15:36:56;4.07;;;1.00;;
46731;SDS011;32477;51.474;5.696;2023-02-26T15:39:22;4.88;;;1.67;;
46731;SDS011;32477;51.474;5.696;2023-02-26T15:41:49;4.20;;;1.20;;
46731;SDS011;32477;51.474;5.696;2023-02-26T15:44:24;4.20;;;1.65;;
46731;SDS011;32477;51.474;5.696;2023-02-26T15:46:55;5.55;;;1.60;;
46731;SDS011;32477;51.474;5.696;2023-02-26T15:49:26;6.03;;;1.95;;
46731;SDS011;32477;51.474;5.696;2023-02-26T15:51:58;2.83;;;1.30;;
46731;SDS011;32477;51.474;5.696;2023-02-26T15:54:28;1.90;;;0.90;;
46731;SDS011;32477;51.474;5.696;2023-02-26T15:57:06;3.58;;;0.73;;
46731;SDS011;32477;51.474;5.696;2023-02-26T15:59:33;1.95;;;1.10;;
46731;SDS011;32477;51.474;5.696;2023-02-26T16:02:13;1.33;;;0.98;;
46731;SDS011;32477;51.474;5.696;2023-02-26T16:04:40;2.80;;;0.90;;
46731;SDS011;32477;51.474;5.696;2023-02-26T16:07:10;7.78;;;1.40;;
46731;SDS011;32477;51.474;5.696;2023-02-26T16:09:43;5.70;;;1.20;;
46731;SDS011;32477;51.474;5.696;2023-02-26T16:12:17;5.25;;;1.10;;
46731;SDS011;32477;51.474;5.696;2023-02-26T16:14:57;1.88;;;0.88;;
46731;SDS011;32477;51.474;5.696;2023-02-26T16:17:28;3.15;;;1.20;;
46731;SDS011;32477;51.474;5.696;2023-02-26T16:19:57;3.42;;;1.10;;
46731;SDS011;32477;51.474;5.696;2023-02-26T16:22:28;4.00;;;1.23;;
46731;SDS011;32477;51.474;5.696;2023-02-26T16:25:06;2.45;;;0.90;;
46731;SDS011;32477;51.474;5.696;2023-02-26T16:27:56;1.35;;;0.88;;
46731;SDS011;32477;51.474;5.696;2023-02-26T16:30:32;6.35;;;1.42;;
46731;SDS011;32477;51.474;5.696;2023-02-26T16:33:02;1.60;;;0.70;;
46731;SDS011;32477;51.474;5.696;2023-02-26T16:35:36;2.70;;;0.95;;
46731;SDS011;32477;51.474;5.696;2023-02-26T16:38:17;3.25;;;0.88;;
46731;SDS011;32477;51.474;5.696;2023-02-26T16:40:45;5.88;;;1.20;;
46731;SDS011;32477;51.474;5.696;2023-02-26T16:49:04;2.67;;;1.20;;
46731;SDS011;32477;51.474;5.696;2023-02-26T16:51:35;1.88;;;1.00;;
46731;SDS011;32477;51.474;5.696;2023-02-26T16:54:24;1.50;;;0.90;;
46731;SDS011;32477;51.474;5.696;2023-02-26T16:57:05;8.40;;;2.17;;
46731;SDS011;32477;51.474;5.696;2023-02-26T16:59:36;2.55;;;1.30;;
46731;SDS011;32477;51.474;5.696;2023-02-26T17:02:22;2.42;;;1.20;;
46731;SDS011;32477;51.474;5.696;2023-02-26T17:04:56;4.00;;;0.77;;
46731;SDS011;32477;51.474;5.696;2023-02-26T17:07:31;2.35;;;0.95;;
46731;SDS011;32477;51.474;5.696;2023-02-26T17:10:05;2.38;;;1.00;;
46731;SDS011;32477;51.474;5.696;2023-02-26T17:12:53;5.47;;;0.93;;
46731;SDS011;32477;51.474;5.696;2023-02-26T17:15:30;1.92;;;1.00;;
46731;SDS011;32477;51.474;5.696;2023-02-26T17:17:59;5.25;;;1.30;;
46731;SDS011;32477;51.474;5.696;2023-02-26T17:20:26;36.97;;;14.25;;
46731;SDS011;32477;51.474;5.696;2023-02-26T17:22:54;16.38;;;5.68;;
46731;SDS011;32477;51.474;5.696;2023-02-26T17:25:21;18.50;;;7.78;;
46731;SDS011;32477;51.474;5.696;2023-02-26T17:27:49;6.80;;;3.08;;
46731;SDS011;32477;51.474;5.696;2023-02-26T17:30:18;2.67;;;1.20;;
46731;SDS011;32477;51.474;5.696;2023-02-26T17:32:45;2.08;;;0.80;;
46731;SDS011;32477;51.474;5.696;2023-02-26T17:35:15;3.63;;;1.10;;
46731;SDS011;32477;51.474;5.696;2023-02-26T17:37:42;6.35;;;1.60;;
46731;SDS011;32477;51.474;5.696;2023-02-26T17:40:19;2.90;;;1.13;;
46731;SDS011;32477;51.474;5.696;2023-02-26T17:42:48;7.15;;;1.65;;
46731;SDS011;32477;51.474;5.696;2023-02-26T17:45:14;3.85;;;1.42;;
46731;SDS011;32477;51.474;5.696;2023-02-26T17:47:40;2.47;;;1.13;;
46731;SDS011;32477;51.474;5.696;2023-02-26T17:50:19;1.52;;;0.90;;
46731;SDS011;32477;51.474;5.696;2023-02-26T17:53:04;1.65;;;0.73;;
46731;SDS011;32477;51.474;5.696;2023-02-26T17:55:30;1.63;;;1.02;;